sensor_id;sensor_type;location;lat;lon;timestamp;temperature;humidity
46490;DHT22;32204;49.160;8.580;2023-07-20T00:00:03;21.50;3.60
46490;DHT22;32204;49.160;8.580;2023-07-20T00:02:29;21.50;13.50
46490;DHT22;32204;49.160;8.580;2023-07-20T00:04:55;21.50;22.70
46490;DHT22;32204;49.160;8.580;2023-07-20T00:07:20;21.40;26.90
46490;DHT22;32204;49.160;8.580;2023-07-20T00:09:46;21.30;37.00
46490;DHT22;32204;49.160;8.580;2023-07-20T00:12:11;21.30;46.10
46490;DHT22;32204;49.160;8.580;2023-07-20T00:14:37;21.30;46.80
46490;DHT22;32204;49.160;8.580;2023-07-20T00:17:02;21.20;57.60
46490;DHT22;32204;49.160;8.580;2023-07-20T00:19:28;21.10;64.40
46490;DHT22;32204;49.160;8.580;2023-07-20T00:21:54;21.00;77.90
46490;DHT22;32204;49.160;8.580;2023-07-20T00:24:20;20.90;84.50
46490;DHT22;32204;49.160;8.580;2023-07-20T00:26:45;20.90;82.70
46490;DHT22;32204;49.160;8.580;2023-07-20T00:29:11;20.90;87.20
46490;DHT22;32204;49.160;8.580;2023-07-20T00:31:37;21.00;93.10
46490;DHT22;32204;49.160;8.580;2023-07-20T00:34:03;21.20;97.30
46490;DHT22;32204;49.160;8.580;2023-07-20T00:36:29;21.20;97.50
46490;DHT22;32204;49.160;8.580;2023-07-20T00:38:55;21.10;99.90
46490;DHT22;32204;49.160;8.580;2023-07-20T00:41:20;21.10;99.90
46490;DHT22;32204;49.160;8.580;2023-07-20T00:43:46;21.10;99.90
46490;DHT22;32204;49.160;8.580;2023-07-20T00:46:12;21.00;99.90
46490;DHT22;32204;49.160;8.580;2023-07-20T00:48:38;20.90;99.90
46490;DHT22;32204;49.160;8.580;2023-07-20T00:51:04;20.90;99.90
46490;DHT22;32204;49.160;8.580;2023-07-20T00:53:30;20.90;99.90
46490;DHT22;32204;49.160;8.580;2023-07-20T00:55:56;21.00;99.90
46490;DHT22;32204;49.160;8.580;2023-07-20T00:58:23;20.90;99.90
46490;DHT22;32204;49.160;8.580;2023-07-20T01:00:49;20.90;99.90
46490;DHT22;32204;49.160;8.580;2023-07-20T01:03:15;20.90;99.90
46490;DHT22;32204;49.160;8.580;2023-07-20T01:11:28;20.80;99.90
46490;DHT22;32204;49.160;8.580;2023-07-20T01:13:57;20.70;99.90
46490;DHT22;32204;49.160;8.580;2023-07-20T01:16:23;20.60;99.90
46490;DHT22;32204;49.160;8.580;2023-07-20T01:18:49;20.50;99.90
46490;DHT22;32204;49.160;8.580;2023-07-20T01:21:23;20.40;99.90
46490;DHT22;32204;49.160;8.580;2023-07-20T01:29:28;20.30;99.90
46490;DHT22;32204;49.160;8.580;2023-07-20T01:31:58;20.30;99.90
46490;DHT22;32204;49.160;8.580;2023-07-20T01:34:24;20.30;99.90
46490;DHT22;32204;49.160;8.580;2023-07-20T01:36:52;20.30;99.90
46490;DHT22;32204;49.160;8.580;2023-07-20T01:39:19;20.20;99.90
46490;DHT22;32204;49.160;8.580;2023-07-20T01:41:45;20.30;99.90
46490;DHT22;32204;49.160;8.580;2023-07-20T01:44:12;20.20;99.90
46490;DHT22;32204;49.160;8.580;2023-07-20T01:46:38;20.30;99.90
46490;DHT22;32204;49.160;8.580;2023-07-20T01:49:04;20.20;99.90
46490;DHT22;32204;49.160;8.580;2023-07-20T01:51:29;20.20;99.90
46490;DHT22;32204;49.160;8.580;2023-07-20T01:53:55;20.10;99.90
46490;DHT22;32204;49.160;8.580;2023-07-20T01:56:20;20.10;99.90
46490;DHT22;32204;49.160;8.580;2023-07-20T01:58:46;20.10;99.90
46490;DHT22;32204;49.160;8.580;2023-07-20T02:01:12;20.20;99.90
46490;DHT22;32204;49.160;8.580;2023-07-20T02:03:37;20.20;99.90
46490;DHT22;32204;49.160;8.580;2023-07-20T02:06:03;20.20;99.90
46490;DHT22;32204;49.160;8.580;2023-07-20T02:08:28;20.10;99.90
46490;DHT22;32204;49.160;8.580;2023-07-20T02:10:54;20.20;99.90
46490;DHT22;32204;49.160;8.580;2023-07-20T02:13:20;20.10;99.90
46490;DHT22;32204;49.160;8.580;2023-07-20T02:15:45;20.10;99.90
46490;DHT22;32204;49.160;8.580;2023-07-20T02:18:12;20.10;99.90
46490;DHT22;32204;49.160;8.580;2023-07-20T02:20:38;20.00;99.90
46490;DHT22;32204;49.160;8.580;2023-07-20T02:23:05;19.90;99.90
46490;DHT22;32204;49.160;8.580;2023-07-20T02:25:31;19.80;99.90
46490;DHT22;32204;49.160;8.580;2023-07-20T02:27:56;19.70;99.90
46490;DHT22;32204;49.160;8.580;2023-07-20T02:30:22;19.70;99.90
46490;DHT22;32204;49.160;8.580;2023-07-20T02:32:48;19.60;99.90
46490;DHT22;32204;49.160;8.580;2023-07-20T02:35:16;19.60;99.90
46490;DHT22;32204;49.160;8.580;2023-07-20T02:37:42;19.60;99.90
46490;DHT22;32204;49.160;8.580;2023-07-20T02:40:08;19.50;99.90
46490;DHT22;32204;49.160;8.580;2023-07-20T02:42:34;19.50;99.90
46490;DHT22;32204;49.160;8.580;2023-07-20T02:45:01;19.50;99.90
46490;DHT22;32204;49.160;8.580;2023-07-20T02:47:27;19.50;99.90
46490;DHT22;32204;49.160;8.580;2023-07-20T02:49:52;19.50;99.90
46490;DHT22;32204;49.160;8.580;2023-07-20T02:52:18;19.50;99.90
46490;DHT22;32204;49.160;8.580;2023-07-20T02:54:43;19.50;99.90
46490;DHT22;32204;49.160;8.580;2023-07-20T02:57:09;19.60;99.90
46490;DHT22;32204;49.160;8.580;2023-07-20T02:59:34;19.50;99.90
46490;DHT22;32204;49.160;8.580;2023-07-20T03:02:00;19.50;99.90
46490;DHT22;32204;49.160;8.580;2023-07-20T03:04:26;19.50;99.90
46490;DHT22;32204;49.160;8.580;2023-07-20T03:06:52;19.40;99.90
46490;DHT22;32204;49.160;8.580;2023-07-20T03:09:17;19.40;99.90
46490;DHT22;32204;49.160;8.580;2023-07-20T03:11:43;19.40;99.90
46490;DHT22;32204;49.160;8.580;2023-07-20T03:14:08;19.40;99.90
46490;DHT22;32204;49.160;8.580;2023-07-20T03:16:36;19.40;99.90
46490;DHT22;32204;49.160;8.580;2023-07-20T03:19:01;19.40;99.90
46490;DHT22;32204;49.160;8.580;2023-07-20T03:21:28;19.40;99.90
46490;DHT22;32204;49.160;8.580;2023-07-20T03:23:54;19.40;99.90
46490;DHT22;32204;49.160;8.580;2023-07-20T03:26:20;19.40;99.90
46490;DHT22;32204;49.160;8.580;2023-07-20T03:28:45;19.30;99.90
46490;DHT22;32204;49.160;8.580;2023-07-20T03:31:11;19.20;1.00
46490;DHT22;32204;49.160;8.580;2023-07-20T03:33:36;19.20;1.00
46490;DHT22;32204;49.160;8.580;2023-07-20T03:36:02;19.10;1.00
46490;DHT22;32204;49.160;8.580;2023-07-20T03:38:28;19.00;1.00
46490;DHT22;32204;49.160;8.580;2023-07-20T03:40:56;19.00;1.00
46490;DHT22;32204;49.160;8.580;2023-07-20T03:43:22;18.90;1.00
46490;DHT22;32204;49.160;8.580;2023-07-20T03:45:48;18.90;1.00
46490;DHT22;32204;49.160;8.580;2023-07-20T03:48:19;19.00;1.00
46490;DHT22;32204;49.160;8.580;2023-07-20T03:50:46;18.90;1.00
46490;DHT22;32204;49.160;8.580;2023-07-20T03:53:12;19.00;1.00
46490;DHT22;32204;49.160;8.580;2023-07-20T03:55:38;19.00;1.00
46490;DHT22;32204;49.160;8.580;2023-07-20T03:58:06;19.10;1.00
46490;DHT22;32204;49.160;8.580;2023-07-20T04:00:31;19.10;1.00
46490;DHT22;32204;49.160;8.580;2023-07-20T04:02:57;19.10;1.00
46490;DHT22;32204;49.160;8.580;2023-07-20T04:05:23;19.00;1.00
46490;DHT22;32204;49.160;8.580;2023-07-20T04:07:48;19.00;1.00
46490;DHT22;32204;49.160;8.580;2023-07-20T04:10:14;19.10;1.00
46490;DHT22;32204;49.160;8.580;2023-07-20T04:12:40;19.00;1.00
46490;DHT22;32204;49.160;8.580;2023-07-20T04:15:06;19.00;1.00
46490;DHT22;32204;49.160;8.580;2023-07-20T04:17:31;19.20;1.00
46490;DHT22;32204;49.160;8.580;2023-07-20T04:19:57;19.20;1.00
46490;DHT22;32204;49.160;8.580;2023-07-20T04:22:22;19.20;1.00
46490;DHT22;32204;49.160;8.580;2023-07-20T04:24:48;19.20;1.00
46490;DHT22;32204;49.160;8.580;2023-07-20T04:27:13;19.30;1.00
46490;DHT22;32204;49.160;8.580;2023-07-20T04:29:39;19.30;1.00
46490;DHT22;32204;49.160;8.580;2023-07-20T04:32:05;19.30;1.00
46490;DHT22;32204;49.160;8.580;2023-07-20T04:34:31;19.20;1.00
46490;DHT22;32204;49.160;8.580;2023-07-20T04:36:56;19.20;1.00
46490;DHT22;32204;49.160;8.580;2023-07-20T04:39:22;19.20;1.00
46490;DHT22;32204;49.160;8.580;2023-07-20T04:41:47;19.30;1.00
46490;DHT22;32204;49.160;8.580;2023-07-20T04:44:13;19.40;1.00
46490;DHT22;32204;49.160;8.580;2023-07-20T04:46:39;19.50;1.00
46490;DHT22;32204;49.160;8.580;2023-07-20T04:49:05;19.60;1.00
46490;DHT22;32204;49.160;8.580;2023-07-20T04:51:31;19.70;1.00
46490;DHT22;32204;49.160;8.580;2023-07-20T04:53:57;19.70;1.00
46490;DHT22;32204;49.160;8.580;2023-07-20T04:56:23;19.80;1.00
46490;DHT22;32204;49.160;8.580;2023-07-20T04:58:50;19.80;1.00
46490;DHT22;32204;49.160;8.580;2023-07-20T05:01:15;19.70;1.00
46490;DHT22;32204;49.160;8.580;2023-07-20T05:03:41;19.70;1.00
46490;DHT22;32204;49.160;8.580;2023-07-20T05:06:06;19.60;1.00
46490;DHT22;32204;49.160;8.580;2023-07-20T05:08:32;19.70;1.00
46490;DHT22;32204;49.160;8.580;2023-07-20T05:10:59;19.70;1.00
46490;DHT22;32204;49.160;8.580;2023-07-20T05:13:24;19.70;1.00
46490;DHT22;32204;49.160;8.580;2023-07-20T05:15:53;19.70;1.00
46490;DHT22;32204;49.160;8.580;2023-07-20T05:18:19;19.60;1.00
46490;DHT22;32204;49.160;8.580;2023-07-20T05:20:49;19.60;1.00
46490;DHT22;32204;49.160;8.580;2023-07-20T05:23:17;19.50;1.00
46490;DHT22;32204;49.160;8.580;2023-07-20T05:25:43;19.50;1.00
46490;DHT22;32204;49.160;8.580;2023-07-20T05:28:09;19.60;1.00
46490;DHT22;32204;49.160;8.580;2023-07-20T05:30:35;19.60;1.00
46490;DHT22;32204;49.160;8.580;2023-07-20T05:33:01;20.20;1.00
46490;DHT22;32204;49.160;8.580;2023-07-20T05:35:26;20.60;99.90
46490;DHT22;32204;49.160;8.580;2023-07-20T05:37:52;20.50;99.90
46490;DHT22;32204;49.160;8.580;2023-07-20T05:40:18;20.70;99.90
46490;DHT22;32204;49.160;8.580;2023-07-20T05:42:48;20.70;99.90
46490;DHT22;32204;49.160;8.580;2023-07-20T05:45:14;20.60;99.90
46490;DHT22;32204;49.160;8.580;2023-07-20T05:47:41;20.50;99.90
46490;DHT22;32204;49.160;8.580;2023-07-20T05:50:07;20.30;99.90
46490;DHT22;32204;49.160;8.580;2023-07-20T05:52:33;20.30;99.90
46490;DHT22;32204;49.160;8.580;2023-07-20T05:54:59;20.30;99.90
46490;DHT22;32204;49.160;8.580;2023-07-20T05:57:24;20.50;99.90
46490;DHT22;32204;49.160;8.580;2023-07-20T05:59:50;20.50;99.90
46490;DHT22;32204;49.160;8.580;2023-07-20T06:02:16;20.90;99.90
46490;DHT22;32204;49.160;8.580;2023-07-20T06:04:41;21.00;99.90
46490;DHT22;32204;49.160;8.580;2023-07-20T06:07:07;21.20;99.90
46490;DHT22;32204;49.160;8.580;2023-07-20T06:09:33;21.10;99.90
46490;DHT22;32204;49.160;8.580;2023-07-20T06:11:59;21.10;99.90
46490;DHT22;32204;49.160;8.580;2023-07-20T06:14:25;21.00;99.90
46490;DHT22;32204;49.160;8.580;2023-07-20T06:16:51;21.10;99.90
46490;DHT22;32204;49.160;8.580;2023-07-20T06:19:16;21.40;99.90
46490;DHT22;32204;49.160;8.580;2023-07-20T06:21:43;22.50;99.90
46490;DHT22;32204;49.160;8.580;2023-07-20T06:24:09;22.40;99.90
46490;DHT22;32204;49.160;8.580;2023-07-20T06:26:34;23.00;99.90
46490;DHT22;32204;49.160;8.580;2023-07-20T06:29:07;22.80;99.90
46490;DHT22;32204;49.160;8.580;2023-07-20T06:31:36;23.50;99.90
46490;DHT22;32204;49.160;8.580;2023-07-20T06:34:02;24.60;99.90
46490;DHT22;32204;49.160;8.580;2023-07-20T06:36:28;24.90;99.90
46490;DHT22;32204;49.160;8.580;2023-07-20T06:38:54;25.00;99.90
46490;DHT22;32204;49.160;8.580;2023-07-20T06:41:20;24.30;99.90
46490;DHT22;32204;49.160;8.580;2023-07-20T06:43:46;24.10;99.90
46490;DHT22;32204;49.160;8.580;2023-07-20T06:46:12;24.40;99.90
46490;DHT22;32204;49.160;8.580;2023-07-20T06:48:38;24.30;99.90
46490;DHT22;32204;49.160;8.580;2023-07-20T06:51:03;23.70;99.90
46490;DHT22;32204;49.160;8.580;2023-07-20T06:53:30;23.90;99.90
46490;DHT22;32204;49.160;8.580;2023-07-20T06:55:55;26.00;95.90
46490;DHT22;32204;49.160;8.580;2023-07-20T06:58:24;27.00;57.20
46490;DHT22;32204;49.160;8.580;2023-07-20T07:00:50;27.30;23.40
46490;DHT22;32204;49.160;8.580;2023-07-20T07:03:16;26.90;11.30
46490;DHT22;32204;49.160;8.580;2023-07-20T07:05:42;25.60;8.50
46490;DHT22;32204;49.160;8.580;2023-07-20T07:08:08;24.50;17.50
46490;DHT22;32204;49.160;8.580;2023-07-20T07:10:35;23.60;29.90
46490;DHT22;32204;49.160;8.580;2023-07-20T07:13:01;23.30;52.30
46490;DHT22;32204;49.160;8.580;2023-07-20T07:15:27;23.00;72.80
46490;DHT22;32204;49.160;8.580;2023-07-20T07:17:53;22.80;93.60
46490;DHT22;32204;49.160;8.580;2023-07-20T07:20:19;22.50;99.90
46490;DHT22;32204;49.160;8.580;2023-07-20T07:22:45;22.40;99.90
46490;DHT22;32204;49.160;8.580;2023-07-20T07:25:10;22.50;99.90
46490;DHT22;32204;49.160;8.580;2023-07-20T07:27:36;22.70;99.90
46490;DHT22;32204;49.160;8.580;2023-07-20T07:30:05;23.10;99.90
46490;DHT22;32204;49.160;8.580;2023-07-20T07:32:31;23.20;99.90
46490;DHT22;32204;49.160;8.580;2023-07-20T07:34:57;23.30;99.90
46490;DHT22;32204;49.160;8.580;2023-07-20T07:37:26;23.40;99.90
46490;DHT22;32204;49.160;8.580;2023-07-20T07:39:51;23.80;99.90
46490;DHT22;32204;49.160;8.580;2023-07-20T07:42:17;23.90;99.90
46490;DHT22;32204;49.160;8.580;2023-07-20T07:44:44;23.90;96.20
46490;DHT22;32204;49.160;8.580;2023-07-20T07:47:10;23.90;95.80
46490;DHT22;32204;49.160;8.580;2023-07-20T07:49:35;24.00;62.10
46490;DHT22;32204;49.160;8.580;2023-07-20T07:52:01;23.70;54.80
46490;DHT22;32204;49.160;8.580;2023-07-20T07:54:29;23.60;56.60
46490;DHT22;32204;49.160;8.580;2023-07-20T07:56:55;23.60;56.30
46490;DHT22;32204;49.160;8.580;2023-07-20T07:59:21;23.70;44.70
46490;DHT22;32204;49.160;8.580;2023-07-20T08:01:47;24.00;38.30
46490;DHT22;32204;49.160;8.580;2023-07-20T08:04:13;23.90;34.80
46490;DHT22;32204;49.160;8.580;2023-07-20T08:06:39;23.90;41.60
46490;DHT22;32204;49.160;8.580;2023-07-20T08:09:05;24.10;48.10
46490;DHT22;32204;49.160;8.580;2023-07-20T08:11:30;24.00;45.90
46490;DHT22;32204;49.160;8.580;2023-07-20T08:14:00;24.20;34.40
46490;DHT22;32204;49.160;8.580;2023-07-20T08:16:26;24.30;31.40
46490;DHT22;32204;49.160;8.580;2023-07-20T08:18:51;24.40;25.00
46490;DHT22;32204;49.160;8.580;2023-07-20T08:21:17;24.10;15.80
46490;DHT22;32204;49.160;8.580;2023-07-20T08:23:43;24.00;20.30
46490;DHT22;32204;49.160;8.580;2023-07-20T08:26:08;23.90;12.30
46490;DHT22;32204;49.160;8.580;2023-07-20T08:28:34;23.80;18.20
46490;DHT22;32204;49.160;8.580;2023-07-20T08:31:00;23.70;18.80
46490;DHT22;32204;49.160;8.580;2023-07-20T08:33:26;23.60;20.50
46490;DHT22;32204;49.160;8.580;2023-07-20T08:35:55;23.90;23.70
46490;DHT22;32204;49.160;8.580;2023-07-20T08:38:21;23.80;20.50
46490;DHT22;32204;49.160;8.580;2023-07-20T08:40:47;23.60;21.50
46490;DHT22;32204;49.160;8.580;2023-07-20T08:43:14;23.40;23.30
46490;DHT22;32204;49.160;8.580;2023-07-20T08:45:42;23.40;25.70
46490;DHT22;32204;49.160;8.580;2023-07-20T08:48:11;23.60;24.40
46490;DHT22;32204;49.160;8.580;2023-07-20T08:50:38;23.70;26.50
46490;DHT22;32204;49.160;8.580;2023-07-20T08:53:04;23.80;24.50
46490;DHT22;32204;49.160;8.580;2023-07-20T08:55:30;23.90;23.00
46490;DHT22;32204;49.160;8.580;2023-07-20T08:57:58;23.90;27.70
46490;DHT22;32204;49.160;8.580;2023-07-20T09:00:25;24.00;26.50
46490;DHT22;32204;49.160;8.580;2023-07-20T09:02:53;24.20;20.60
46490;DHT22;32204;49.160;8.580;2023-07-20T09:05:20;24.40;19.20
46490;DHT22;32204;49.160;8.580;2023-07-20T09:07:46;24.50;20.80
46490;DHT22;32204;49.160;8.580;2023-07-20T09:10:12;24.40;20.70
46490;DHT22;32204;49.160;8.580;2023-07-20T09:12:42;24.10;21.90
46490;DHT22;32204;49.160;8.580;2023-07-20T09:15:10;24.10;25.20
46490;DHT22;32204;49.160;8.580;2023-07-20T09:17:36;24.30;22.50
46490;DHT22;32204;49.160;8.580;2023-07-20T09:20:07;24.70;24.00
46490;DHT22;32204;49.160;8.580;2023-07-20T09:22:34;25.20;19.30
46490;DHT22;32204;49.160;8.580;2023-07-20T09:25:00;25.10;16.20
46490;DHT22;32204;49.160;8.580;2023-07-20T09:27:38;24.70;5.90
46490;DHT22;32204;49.160;8.580;2023-07-20T09:30:05;24.30;5.50
46490;DHT22;32204;49.160;8.580;2023-07-20T09:32:48;24.10;2.40
46490;DHT22;32204;49.160;8.580;2023-07-20T09:35:17;24.30;1.50
46490;DHT22;32204;49.160;8.580;2023-07-20T09:37:48;24.60;3.60
46490;DHT22;32204;49.160;8.580;2023-07-20T09:40:18;24.70;1.00
46490;DHT22;32204;49.160;8.580;2023-07-20T09:42:44;24.90;1.00
46490;DHT22;32204;49.160;8.580;2023-07-20T09:45:10;25.10;1.00
46490;DHT22;32204;49.160;8.580;2023-07-20T09:47:37;25.30;1.00
46490;DHT22;32204;49.160;8.580;2023-07-20T09:50:03;25.30;1.00
46490;DHT22;32204;49.160;8.580;2023-07-20T09:52:30;25.30;1.00
46490;DHT22;32204;49.160;8.580;2023-07-20T09:54:57;25.20;1.00
46490;DHT22;32204;49.160;8.580;2023-07-20T09:57:23;24.90;1.00
46490;DHT22;32204;49.160;8.580;2023-07-20T09:59:49;25.00;1.00
46490;DHT22;32204;49.160;8.580;2023-07-20T10:02:27;25.20;1.00
46490;DHT22;32204;49.160;8.580;2023-07-20T10:04:56;25.30;1.00
46490;DHT22;32204;49.160;8.580;2023-07-20T10:07:22;25.30;1.00
46490;DHT22;32204;49.160;8.580;2023-07-20T10:09:51;25.50;1.00
46490;DHT22;32204;49.160;8.580;2023-07-20T10:12:20;25.50;1.00
46490;DHT22;32204;49.160;8.580;2023-07-20T10:15:20;25.60;1.00
46490;DHT22;32204;49.160;8.580;2023-07-20T10:18:15;25.70;1.00
46490;DHT22;32204;49.160;8.580;2023-07-20T10:20:43;25.60;1.00
46490;DHT22;32204;49.160;8.580;2023-07-20T10:23:10;25.50;1.00
46490;DHT22;32204;49.160;8.580;2023-07-20T10:25:36;25.80;1.00
46490;DHT22;32204;49.160;8.580;2023-07-20T10:28:05;25.90;1.00
46490;DHT22;32204;49.160;8.580;2023-07-20T10:30:35;25.90;1.00
46490;DHT22;32204;49.160;8.580;2023-07-20T10:33:05;26.00;1.00
46490;DHT22;32204;49.160;8.580;2023-07-20T10:35:50;26.30;1.00
46490;DHT22;32204;49.160;8.580;2023-07-20T10:38:16;26.40;1.00
46490;DHT22;32204;49.160;8.580;2023-07-20T10:40:41;26.50;1.00
46490;DHT22;32204;49.160;8.580;2023-07-20T10:43:09;26.30;1.00
46490;DHT22;32204;49.160;8.580;2023-07-20T10:45:51;26.50;1.00
46490;DHT22;32204;49.160;8.580;2023-07-20T10:48:18;26.50;1.00
46490;DHT22;32204;49.160;8.580;2023-07-20T10:50:45;26.60;1.00
46490;DHT22;32204;49.160;8.580;2023-07-20T10:53:16;26.70;1.00
46490;DHT22;32204;49.160;8.580;2023-07-20T10:55:42;26.70;1.00
46490;DHT22;32204;49.160;8.580;2023-07-20T10:58:09;26.70;1.00
46490;DHT22;32204;49.160;8.580;2023-07-20T11:00:35;26.90;1.00
46490;DHT22;32204;49.160;8.580;2023-07-20T11:03:02;27.00;1.00
46490;DHT22;32204;49.160;8.580;2023-07-20T11:05:38;27.10;1.00
46490;DHT22;32204;49.160;8.580;2023-07-20T11:08:14;27.00;1.00
46490;DHT22;32204;49.160;8.580;2023-07-20T11:11:23;26.60;1.00
46490;DHT22;32204;49.160;8.580;2023-07-20T11:14:00;26.60;1.00
46490;DHT22;32204;49.160;8.580;2023-07-20T11:16:43;26.70;1.00
46490;DHT22;32204;49.160;8.580;2023-07-20T11:19:17;26.80;1.00
46490;DHT22;32204;49.160;8.580;2023-07-20T11:21:44;27.10;1.00
46490;DHT22;32204;49.160;8.580;2023-07-20T11:24:11;27.30;1.00
46490;DHT22;32204;49.160;8.580;2023-07-20T11:26:54;27.20;1.00
46490;DHT22;32204;49.160;8.580;2023-07-20T11:29:21;27.10;1.00
46490;DHT22;32204;49.160;8.580;2023-07-20T11:31:48;26.90;1.00
46490;DHT22;32204;49.160;8.580;2023-07-20T11:34:19;26.90;1.00
46490;DHT22;32204;49.160;8.580;2023-07-20T11:36:49;27.20;1.00
46490;DHT22;32204;49.160;8.580;2023-07-20T11:39:17;27.20;1.00
46490;DHT22;32204;49.160;8.580;2023-07-20T11:41:55;27.30;1.00
46490;DHT22;32204;49.160;8.580;2023-07-20T11:44:23;27.50;1.00
46490;DHT22;32204;49.160;8.580;2023-07-20T11:47:08;27.80;1.00
46490;DHT22;32204;49.160;8.580;2023-07-20T11:49:41;28.00;1.00
46490;DHT22;32204;49.160;8.580;2023-07-20T11:52:10;27.90;1.00
46490;DHT22;32204;49.160;8.580;2023-07-20T11:54:38;27.90;1.00
46490;DHT22;32204;49.160;8.580;2023-07-20T11:57:04;27.80;1.00
46490;DHT22;32204;49.160;8.580;2023-07-20T11:59:33;27.70;1.00
46490;DHT22;32204;49.160;8.580;2023-07-20T12:02:01;27.30;1.00
46490;DHT22;32204;49.160;8.580;2023-07-20T12:04:28;27.20;1.00
46490;DHT22;32204;49.160;8.580;2023-07-20T12:06:54;27.10;1.00
46490;DHT22;32204;49.160;8.580;2023-07-20T12:09:21;26.90;1.00
46490;DHT22;32204;49.160;8.580;2023-07-20T12:11:49;27.20;1.00
46490;DHT22;32204;49.160;8.580;2023-07-20T12:14:15;27.10;1.00
46490;DHT22;32204;49.160;8.580;2023-07-20T12:16:40;27.20;1.00
46490;DHT22;32204;49.160;8.580;2023-07-20T12:19:08;27.40;1.00
46490;DHT22;32204;49.160;8.580;2023-07-20T12:21:34;27.50;1.00
46490;DHT22;32204;49.160;8.580;2023-07-20T12:24:01;27.50;1.00
46490;DHT22;32204;49.160;8.580;2023-07-20T12:26:29;27.40;1.00
46490;DHT22;32204;49.160;8.580;2023-07-20T12:28:55;27.30;1.00
46490;DHT22;32204;49.160;8.580;2023-07-20T12:31:21;27.30;1.00
46490;DHT22;32204;49.160;8.580;2023-07-20T12:33:48;27.40;1.00
46490;DHT22;32204;49.160;8.580;2023-07-20T12:36:14;27.50;1.00
46490;DHT22;32204;49.160;8.580;2023-07-20T12:38:40;27.20;1.00
46490;DHT22;32204;49.160;8.580;2023-07-20T12:41:10;27.20;1.00
46490;DHT22;32204;49.160;8.580;2023-07-20T12:43:38;27.00;1.00
46490;DHT22;32204;49.160;8.580;2023-07-20T12:46:04;27.20;1.00
46490;DHT22;32204;49.160;8.580;2023-07-20T12:48:30;27.10;1.00
46490;DHT22;32204;49.160;8.580;2023-07-20T12:50:55;27.10;1.00
46490;DHT22;32204;49.160;8.580;2023-07-20T12:53:21;27.00;1.00
46490;DHT22;32204;49.160;8.580;2023-07-20T12:55:47;27.00;1.00
46490;DHT22;32204;49.160;8.580;2023-07-20T12:58:13;27.10;1.00
46490;DHT22;32204;49.160;8.580;2023-07-20T13:00:39;27.30;1.00
46490;DHT22;32204;49.160;8.580;2023-07-20T13:03:05;27.60;1.00
46490;DHT22;32204;49.160;8.580;2023-07-20T13:05:32;27.60;1.00
46490;DHT22;32204;49.160;8.580;2023-07-20T13:07:58;27.40;1.00
46490;DHT22;32204;49.160;8.580;2023-07-20T13:10:24;27.50;1.00
46490;DHT22;32204;49.160;8.580;2023-07-20T13:12:49;27.60;1.00
46490;DHT22;32204;49.160;8.580;2023-07-20T13:15:17;27.60;1.00
46490;DHT22;32204;49.160;8.580;2023-07-20T13:17:42;27.60;1.00
46490;DHT22;32204;49.160;8.580;2023-07-20T13:20:09;27.30;1.00
46490;DHT22;32204;49.160;8.580;2023-07-20T13:22:37;27.20;1.00
46490;DHT22;32204;49.160;8.580;2023-07-20T13:25:03;27.10;1.00
46490;DHT22;32204;49.160;8.580;2023-07-20T13:27:29;27.20;1.00
46490;DHT22;32204;49.160;8.580;2023-07-20T13:29:56;27.40;1.00
46490;DHT22;32204;49.160;8.580;2023-07-20T13:32:22;27.60;1.00
46490;DHT22;32204;49.160;8.580;2023-07-20T13:34:48;27.30;1.00
46490;DHT22;32204;49.160;8.580;2023-07-20T13:37:14;27.30;1.00
46490;DHT22;32204;49.160;8.580;2023-07-20T13:39:40;27.00;1.00
46490;DHT22;32204;49.160;8.580;2023-07-20T13:42:06;26.90;1.00
46490;DHT22;32204;49.160;8.580;2023-07-20T13:44:32;26.90;1.00
46490;DHT22;32204;49.160;8.580;2023-07-20T13:46:57;27.00;1.00
46490;DHT22;32204;49.160;8.580;2023-07-20T13:49:23;27.10;1.00
46490;DHT22;32204;49.160;8.580;2023-07-20T13:51:49;27.20;1.00
46490;DHT22;32204;49.160;8.580;2023-07-20T13:54:15;27.10;1.00
46490;DHT22;32204;49.160;8.580;2023-07-20T13:56:40;27.10;1.00
46490;DHT22;32204;49.160;8.580;2023-07-20T13:59:06;27.10;1.00
46490;DHT22;32204;49.160;8.580;2023-07-20T14:01:32;27.20;1.00
46490;DHT22;32204;49.160;8.580;2023-07-20T14:04:01;27.10;1.00
46490;DHT22;32204;49.160;8.580;2023-07-20T14:06:32;27.10;1.00
46490;DHT22;32204;49.160;8.580;2023-07-20T14:08:58;27.20;1.00
46490;DHT22;32204;49.160;8.580;2023-07-20T14:11:25;27.10;1.00
46490;DHT22;32204;49.160;8.580;2023-07-20T14:13:51;27.20;1.00
46490;DHT22;32204;49.160;8.580;2023-07-20T14:16:19;27.50;1.00
46490;DHT22;32204;49.160;8.580;2023-07-20T14:18:45;27.70;1.00
46490;DHT22;32204;49.160;8.580;2023-07-20T14:21:13;27.80;1.00
46490;DHT22;32204;49.160;8.580;2023-07-20T14:23:38;28.00;1.00
46490;DHT22;32204;49.160;8.580;2023-07-20T14:26:04;28.30;1.00
46490;DHT22;32204;49.160;8.580;2023-07-20T14:28:31;28.40;1.00
46490;DHT22;32204;49.160;8.580;2023-07-20T14:30:57;28.30;1.00
46490;DHT22;32204;49.160;8.580;2023-07-20T14:33:23;28.30;1.00
46490;DHT22;32204;49.160;8.580;2023-07-20T14:35:48;28.50;1.00
46490;DHT22;32204;49.160;8.580;2023-07-20T14:38:14;28.70;1.00
46490;DHT22;32204;49.160;8.580;2023-07-20T14:40:39;28.80;1.00
46490;DHT22;32204;49.160;8.580;2023-07-20T14:43:05;28.80;1.00
46490;DHT22;32204;49.160;8.580;2023-07-20T14:45:31;28.90;1.00
46490;DHT22;32204;49.160;8.580;2023-07-20T14:47:56;29.00;1.00
46490;DHT22;32204;49.160;8.580;2023-07-20T14:50:22;28.60;1.00
46490;DHT22;32204;49.160;8.580;2023-07-20T14:52:48;28.40;1.00
46490;DHT22;32204;49.160;8.580;2023-07-20T14:55:14;28.60;1.00
46490;DHT22;32204;49.160;8.580;2023-07-20T14:57:40;28.70;1.00
46490;DHT22;32204;49.160;8.580;2023-07-20T15:00:06;28.70;1.00
46490;DHT22;32204;49.160;8.580;2023-07-20T15:02:38;28.90;1.00
46490;DHT22;32204;49.160;8.580;2023-07-20T15:05:07;28.90;1.00
46490;DHT22;32204;49.160;8.580;2023-07-20T15:07:32;28.90;1.00
46490;DHT22;32204;49.160;8.580;2023-07-20T15:09:58;29.00;1.00
46490;DHT22;32204;49.160;8.580;2023-07-20T15:12:24;29.00;1.00
46490;DHT22;32204;49.160;8.580;2023-07-20T15:17:31;29.00;1.00
46490;DHT22;32204;49.160;8.580;2023-07-20T15:19:56;28.90;1.00
46490;DHT22;32204;49.160;8.580;2023-07-20T15:22:22;29.10;1.00
46490;DHT22;32204;49.160;8.580;2023-07-20T15:24:47;29.10;1.00
46490;DHT22;32204;49.160;8.580;2023-07-20T15:27:13;29.30;1.00
46490;DHT22;32204;49.160;8.580;2023-07-20T15:29:39;29.30;1.00
46490;DHT22;32204;49.160;8.580;2023-07-20T15:32:04;29.60;1.00
46490;DHT22;32204;49.160;8.580;2023-07-20T15:34:31;29.70;1.00
46490;DHT22;32204;49.160;8.580;2023-07-20T15:36:57;29.60;1.00
46490;DHT22;32204;49.160;8.580;2023-07-20T15:39:22;29.40;1.00
46490;DHT22;32204;49.160;8.580;2023-07-20T15:41:49;29.10;1.00
46490;DHT22;32204;49.160;8.580;2023-07-20T15:44:15;28.90;1.00
46490;DHT22;32204;49.160;8.580;2023-07-20T15:49:06;29.00;1.00
46490;DHT22;32204;49.160;8.580;2023-07-20T15:51:36;28.90;1.00
46490;DHT22;32204;49.160;8.580;2023-07-20T15:54:02;28.80;1.00